Genie — WDF8288 — position and weather

sailwx.info

Track history (hours):
 
Tides and Currents Weather Stations Pressure Air Temp Water Temp Dewpoint Dewpoint Depression Visibility Wind Speed Wind Dir Waves Ship Positions

Genie

Owner: Enterprise Marine Services, LLC, San Antonio, TX. More information available from US FCC via Universal Licensing System and Coast Guard Vessel Documentation Center.

Last reported at 2017-Oct-31 08:21 UTC. Time now 2017-Nov-21 19:11 UTC.
Position N 32°40' W 091°07'.
Warning: this ship's position is 21 days out of date.

Length 34 m; draft 2.9 m.

Type: . MMSI: 367407750.

Date/timePositionNaut miles runAvg speedWind from/ knotsBaromVisibWave heightAir tempDewpointWater temp
2017-Oct-31 08:21N 32°40' W 091°07'3 3.8
2017-Oct-31 07:38N 32°38' W 091°09'1 4.2
2017-Oct-31 07:30N 32°38' W 091°09'2 4.3
2017-Oct-31 07:00N 32°36' W 091°08'2 4.7
2017-Oct-31 06:30N 32°34' W 091°06'2 3.8
2017-Oct-31 06:00N 32°32' W 091°06'3 5.0
2017-Oct-31 05:29N 32°30' W 091°07'2 4.8
2017-Oct-31 05:00N 32°28' W 091°06'2 4.8
2017-Oct-31 04:30N 32°26' W 091°04'2 4.7
2017-Oct-31 04:00N 32°26' W 091°01'2 4.1
2017-Oct-31 03:31N 32°24' W 090°59'2 3.1
2017-Oct-31 03:00N 32°23' W 091°00'2 3.9
2017-Oct-31 02:30N 32°21' W 090°59'2 5.0
2017-Oct-31 02:00N 32°21' W 090°56'2 4.3
2017-Oct-31 01:30N 32°19' W 090°54'3 5.8
2017-Oct-31 01:00N 32°17' W 090°56'2 4.7
2017-Oct-31 00:30N 32°16' W 090°58'2 4.1
2017-Oct-31 00:00N 32°14' W 090°59'2 4.7
2017-Oct-30 23:30N 32°11' W 090°60'2 4.3
2017-Oct-30 23:00N 32°09' W 091°00'2 4.1
2017-Oct-30 22:29N 32°07' W 091°01'2 4.0
2017-Oct-30 22:00N 32°08' W 091°03'3 4.1
2017-Oct-30 21:23N 32°08' W 091°06'1 3.9
2017-Oct-30 21:00N 32°06' W 091°06'0 0.1
2017-Oct-30 20:30N 32°06' W 091°06'3 3.9
2017-Oct-30 19:37N 32°04' W 091°03'0 3.4
2017-Oct-30 19:30N 32°03' W 091°03'  
2017-Oct-23 18:14N 32°07' W 091°06'2 6.5
2017-Oct-23 18:00N 32°08' W 091°05'4 7.9
2017-Oct-23 17:28N 32°08' W 091°00'4 9.4
2017-Oct-23 17:00N 32°13' W 090°59'4 9.1
2017-Oct-23 16:30N 32°17' W 090°57'4 8.4
2017-Oct-23 16:00N 32°20' W 090°54'4 8.5
2017-Oct-23 15:31N 32°21' W 090°59'4 7.5
2017-Oct-23 15:01N 32°25' W 090°60'4 9.0
2017-Oct-23 14:31N 32°27' W 091°04'4 8.1
2017-Oct-23 14:00N 32°30' W 091°07'4 8.5
2017-Oct-23 13:30N 32°34' W 091°07'6 8.3
2017-Oct-23 12:49N 32°40' W 091°08'  
Track history (hours):
 
Tides and Currents Weather Stations Pressure Air Temp Water Temp Dewpoint Dewpoint Depression Visibility Wind Speed Wind Dir Waves Ship Positions

Genie

Owner: Enterprise Marine Services, LLC, San Antonio, TX. More information available from US FCC via Universal Licensing System and Coast Guard Vessel Documentation Center.

Last reported at 2017-Oct-31 08:21 UTC. Time now 2017-Nov-21 19:11 UTC.
Position N 32°40' W 091°07'.
Warning: this ship's position is 21 days out of date.

Length 34 m; draft 2.9 m.

Type: . MMSI: 367407750.

Date/timePositionNaut miles runAvg speedWind from/ knotsBaromVisibWave heightAir tempDewpointWater temp
2017-Oct-31 08:21N 32°40' W 091°07'3 3.8
2017-Oct-31 07:38N 32°38' W 091°09'1 4.2
2017-Oct-31 07:30N 32°38' W 091°09'2 4.3
2017-Oct-31 07:00N 32°36' W 091°08'2 4.7
2017-Oct-31 06:30N 32°34' W 091°06'2 3.8
2017-Oct-31 06:00N 32°32' W 091°06'3 5.0
2017-Oct-31 05:29N 32°30' W 091°07'2 4.8
2017-Oct-31 05:00N 32°28' W 091°06'2 4.8
2017-Oct-31 04:30N 32°26' W 091°04'2 4.7
2017-Oct-31 04:00N 32°26' W 091°01'2 4.1
2017-Oct-31 03:31N 32°24' W 090°59'2 3.1
2017-Oct-31 03:00N 32°23' W 091°00'2 3.9
2017-Oct-31 02:30N 32°21' W 090°59'2 5.0
2017-Oct-31 02:00N 32°21' W 090°56'2 4.3
2017-Oct-31 01:30N 32°19' W 090°54'3 5.8
2017-Oct-31 01:00N 32°17' W 090°56'2 4.7
2017-Oct-31 00:30N 32°16' W 090°58'2 4.1
2017-Oct-31 00:00N 32°14' W 090°59'2 4.7
2017-Oct-30 23:30N 32°11' W 090°60'2 4.3
2017-Oct-30 23:00N 32°09' W 091°00'2 4.1
2017-Oct-30 22:29N 32°07' W 091°01'2 4.0
2017-Oct-30 22:00N 32°08' W 091°03'3 4.1
2017-Oct-30 21:23N 32°08' W 091°06'1 3.9
2017-Oct-30 21:00N 32°06' W 091°06'0 0.1
2017-Oct-30 20:30N 32°06' W 091°06'3 3.9
2017-Oct-30 19:37N 32°04' W 091°03'0 3.4
2017-Oct-30 19:30N 32°03' W 091°03'  
2017-Oct-23 18:14N 32°07' W 091°06'2 6.5
2017-Oct-23 18:00N 32°08' W 091°05'4 7.9
2017-Oct-23 17:28N 32°08' W 091°00'4 9.4
2017-Oct-23 17:00N 32°13' W 090°59'4 9.1
2017-Oct-23 16:30N 32°17' W 090°57'4 8.4
2017-Oct-23 16:00N 32°20' W 090°54'4 8.5
2017-Oct-23 15:31N 32°21' W 090°59'4 7.5
2017-Oct-23 15:01N 32°25' W 090°60'4 9.0
2017-Oct-23 14:31N 32°27' W 091°04'4 8.1
2017-Oct-23 14:00N 32°30' W 091°07'4 8.5
2017-Oct-23 13:30N 32°34' W 091°07'6 8.3
2017-Oct-23 12:49N 32°40' W 091°08'  

Dump ship's entire track history